createdAt,value
2018-08-18T00:00:47.303Z,0
2018-08-18T00:01:56.599Z,0
2018-08-18T00:03:06.173Z,0
2018-08-18T00:04:16.280Z,0
2018-08-18T00:05:25.855Z,0
2018-08-18T00:06:35.971Z,0
2018-08-18T00:07:45.538Z,0
2018-08-18T00:08:55.106Z,0
2018-08-18T00:10:05.223Z,0
2018-08-18T00:11:14.793Z,0
2018-08-18T00:12:24.628Z,0
2018-08-18T00:13:34.471Z,0
2018-08-18T00:14:44.310Z,0
2018-08-18T00:15:53.879Z,0
2018-08-18T00:17:03.733Z,0
2018-08-18T00:18:13.304Z,0
2018-08-18T00:19:22.877Z,0
2018-08-18T00:20:32.447Z,0
2018-08-18T00:21:42.561Z,0
2018-08-18T00:22:51.865Z,0
2018-08-18T00:24:01.761Z,0
2018-08-18T00:25:11.597Z,0
2018-08-18T00:26:21.446Z,0
2018-08-18T00:27:31.021Z,0
2018-08-18T00:28:40.336Z,0
2018-08-18T00:29:49.906Z,0
2018-08-18T00:30:59.214Z,0
2018-08-18T00:32:09.326Z,0
2018-08-18T00:33:18.901Z,0
2018-08-18T00:34:29.026Z,0
2018-08-18T00:35:38.651Z,0
2018-08-18T00:36:47.959Z,0
2018-08-18T00:37:57.260Z,0
2018-08-18T00:39:06.830Z,0
2018-08-18T00:40:16.683Z,0
2018-08-18T00:41:26.253Z,0
2018-08-18T00:42:35.826Z,0
2018-08-18T00:43:45.673Z,0
2018-08-18T00:44:55.515Z,0
2018-08-18T00:46:05.357Z,0
2018-08-18T00:47:14.388Z,0
2018-08-18T00:48:24.225Z,0
2018-08-18T00:49:33.792Z,0
2018-08-18T00:50:43.636Z,0
2018-08-18T00:51:53.476Z,0
2018-08-18T00:53:03.309Z,0
2018-08-18T00:54:13.423Z,0
2018-08-18T00:55:23.262Z,0
2018-08-18T00:56:32.830Z,0
2018-08-18T00:57:42.683Z,0
2018-08-18T00:58:52.538Z,0
2018-08-18T01:00:02.112Z,0
2018-08-18T01:01:11.147Z,0
2018-08-18T01:02:20.450Z,0
2018-08-18T01:03:30.290Z,0
2018-08-18T01:04:39.863Z,0
2018-08-18T01:05:49.434Z,0
2018-08-18T01:06:58.730Z,0
2018-08-18T01:08:08.301Z,0
2018-08-18T01:09:17.607Z,0
2018-08-18T01:10:27.501Z,0
2018-08-18T01:11:37.974Z,0
2018-08-18T01:12:49.168Z,0
2018-08-18T01:13:59.478Z,0
2018-08-18T01:15:09.623Z,0
2018-08-18T01:16:18.927Z,0
2018-08-18T01:17:28.496Z,0
2018-08-18T01:18:38.066Z,0
2018-08-18T01:19:48.172Z,0
2018-08-18T01:20:58.277Z,0
2018-08-18T01:22:08.122Z,0
2018-08-18T01:23:17.960Z,0
2018-08-18T01:24:27.529Z,0
2018-08-18T01:25:37.096Z,0
2018-08-18T01:26:46.132Z,0
2018-08-18T01:27:55.707Z,0
2018-08-18T01:29:05.828Z,0
2018-08-18T01:30:15.127Z,0
2018-08-18T01:31:24.694Z,0
2018-08-18T01:32:34.268Z,0
2018-08-18T01:33:44.109Z,0
2018-08-18T01:34:53.681Z,0
2018-08-18T01:36:03.533Z,0
2018-08-18T01:37:13.370Z,0
2018-08-18T01:38:23.211Z,0
2018-08-18T01:39:32.511Z,0
2018-08-18T01:40:41.808Z,0
2018-08-18T01:41:51.396Z,0
2018-08-18T01:43:00.973Z,0
2018-08-18T01:44:10.276Z,0
2018-08-18T01:45:19.897Z,0
2018-08-18T01:46:28.931Z,0
2018-08-18T01:47:38.237Z,0
2018-08-18T01:48:47.804Z,0
2018-08-18T01:49:57.644Z,0
2018-08-18T01:51:07.483Z,0
2018-08-18T01:52:16.512Z,0
2018-08-18T01:53:26.085Z,0
2018-08-18T01:54:35.921Z,0
2018-08-18T01:55:45.490Z,0
2018-08-18T01:56:55.336Z,0
2018-08-18T01:58:05.455Z,0
2018-08-18T01:59:14.757Z,0
2018-08-18T02:00:24.328Z,0
2018-08-18T02:01:34.443Z,0
2018-08-18T02:02:44.012Z,0
2018-08-18T02:03:53.856Z,0
2018-08-18T02:05:03.158Z,0
2018-08-18T02:06:12.736Z,0
2018-08-18T02:07:22.313Z,0
2018-08-18T02:08:31.888Z,0
2018-08-18T02:09:41.195Z,0
2018-08-18T02:10:50.763Z,0
2018-08-18T02:12:00.608Z,0
2018-08-18T02:13:10.449Z,0
2018-08-18T02:14:20.302Z,0
2018-08-18T02:15:30.146Z,0
2018-08-18T02:16:39.767Z,0
2018-08-18T02:17:49.604Z,0
2018-08-18T02:18:59.450Z,0
2018-08-18T02:20:09.985Z,0
2018-08-18T02:21:19.613Z,0
2018-08-18T02:22:29.199Z,0
2018-08-18T02:23:38.763Z,0
2018-08-18T02:24:48.341Z,0
2018-08-18T02:25:58.510Z,0
2018-08-18T02:27:08.355Z,0
2018-08-18T02:28:17.921Z,0
2018-08-18T02:29:27.493Z,0
2018-08-18T02:30:37.062Z,0
2018-08-18T02:31:47.226Z,0
2018-08-18T02:32:57.077Z,0
2018-08-18T02:34:06.118Z,0
2018-08-18T02:35:15.695Z,0
2018-08-18T02:36:25.532Z,0
2018-08-18T02:37:35.370Z,0
2018-08-18T02:38:45.217Z,0
2018-08-18T02:39:55.132Z,0
2018-08-18T02:41:05.047Z,0
2018-08-18T02:42:14.905Z,0
2018-08-18T02:43:24.528Z,0
2018-08-18T02:44:34.374Z,0
2018-08-18T02:45:44.215Z,0
2018-08-18T02:46:53.519Z,0
2018-08-18T02:48:03.085Z,0
2018-08-18T02:49:12.712Z,0
2018-08-18T02:50:22.021Z,0
2018-08-18T02:51:32.135Z,0
2018-08-18T02:52:42.245Z,0
2018-08-18T02:53:51.818Z,0
2018-08-18T02:55:01.729Z,0
2018-08-18T02:56:11.300Z,0
2018-08-18T02:57:20.868Z,0
2018-08-18T02:58:30.463Z,0
2018-08-18T02:59:39.768Z,0
2018-08-18T03:00:49.389Z,0
2018-08-18T03:01:58.960Z,0
2018-08-18T03:03:08.546Z,0
2018-08-18T03:04:17.581Z,0
2018-08-18T03:05:26.892Z,0
2018-08-18T03:06:35.925Z,0
2018-08-18T03:07:45.904Z,0
2018-08-18T03:08:55.792Z,0
2018-08-18T03:10:05.368Z,0
2018-08-18T03:11:14.938Z,0
2018-08-18T03:12:24.570Z,0
2018-08-18T03:13:34.143Z,0
2018-08-18T03:14:44.268Z,0
2018-08-18T03:15:54.389Z,0
2018-08-18T03:17:03.965Z,0
2018-08-18T03:18:13.815Z,0
2018-08-18T03:19:23.660Z,0
2018-08-18T03:20:33.503Z,0
2018-08-18T03:21:43.340Z,0
2018-08-18T03:22:53.193Z,0
2018-08-18T03:24:03.047Z,0
2018-08-18T03:25:12.885Z,0
2018-08-18T03:26:22.185Z,0
2018-08-18T03:27:31.487Z,0
2018-08-18T03:28:40.795Z,0
2018-08-18T03:29:50.953Z,0
2018-08-18T03:31:00.260Z,0
2018-08-18T03:32:10.387Z,0
2018-08-18T03:33:19.975Z,0
2018-08-18T03:34:29.277Z,0
2018-08-18T03:35:39.124Z,0
2018-08-18T03:36:48.429Z,0
2018-08-18T03:37:58.282Z,4
2018-08-18T03:39:07.849Z,4
2018-08-18T03:40:17.421Z,0
2018-08-18T03:41:26.995Z,4
2018-08-18T03:42:36.569Z,4
2018-08-18T03:43:46.416Z,4
2018-08-18T03:44:56.535Z,8
2018-08-18T03:46:06.110Z,8
2018-08-18T03:47:15.408Z,8
2018-08-18T03:48:24.982Z,12
2018-08-18T03:49:34.285Z,16
2018-08-18T03:50:44.393Z,16
2018-08-18T03:51:54.512Z,20
2018-08-18T03:53:03.556Z,20
2018-08-18T03:54:13.687Z,28
2018-08-18T03:55:23.286Z,32
2018-08-18T03:56:32.855Z,36
2018-08-18T03:57:42.152Z,44
2018-08-18T03:58:51.725Z,48
2018-08-18T04:00:01.560Z,56
2018-08-18T04:01:11.400Z,68
2018-08-18T04:02:21.248Z,72
2018-08-18T04:03:31.101Z,84
2018-08-18T04:04:40.942Z,96
2018-08-18T04:05:50.240Z,104
2018-08-18T04:07:00.085Z,116
2018-08-18T04:08:10.197Z,132
2018-08-18T04:09:19.968Z,148
2018-08-18T04:10:30.320Z,164
2018-08-18T04:11:40.167Z,184
2018-08-18T04:12:49.200Z,200
2018-08-18T04:13:59.041Z,216
2018-08-18T04:15:08.342Z,240
2018-08-18T04:16:17.696Z,260
2018-08-18T04:17:27.549Z,284
2018-08-18T04:18:37.662Z,312
2018-08-18T04:19:47.229Z,336
2018-08-18T04:20:57.066Z,364
2018-08-18T04:22:07.228Z,396
2018-08-18T04:23:16.530Z,424
2018-08-18T04:24:26.378Z,456
2018-08-18T04:25:36.228Z,484
2018-08-18T04:26:45.526Z,512
2018-08-18T04:27:54.829Z,548
2018-08-18T04:29:04.137Z,576
2018-08-18T04:30:13.706Z,608
2018-08-18T04:31:23.817Z,636
2018-08-18T04:32:33.666Z,668
2018-08-18T04:33:43.296Z,700
2018-08-18T04:34:53.142Z,728
2018-08-18T04:36:02.988Z,756
2018-08-18T04:37:12.292Z,784
2018-08-18T04:38:22.406Z,812
2018-08-18T04:39:32.254Z,840
2018-08-18T04:40:41.558Z,868
2018-08-18T04:41:51.397Z,904
2018-08-18T04:43:00.973Z,928
2018-08-18T04:44:11.093Z,956
2018-08-18T04:45:20.992Z,984
2018-08-18T04:46:31.104Z,1012
2018-08-18T04:47:40.402Z,1036
2018-08-18T04:48:50.256Z,1068
2018-08-18T04:50:00.098Z,1092
2018-08-18T04:51:09.682Z,1120
2018-08-18T04:52:19.258Z,1148
2018-08-18T04:53:29.382Z,1176
2018-08-18T04:54:38.684Z,1200
2018-08-18T04:55:48.524Z,1232
2018-08-18T04:56:58.656Z,1260
2018-08-18T04:58:08.971Z,1284
2018-08-18T04:59:19.367Z,1320
2018-08-18T05:00:29.072Z,1344
2018-08-18T05:01:39.184Z,1376
2018-08-18T05:02:49.029Z,1408
2018-08-18T05:03:58.612Z,1432
2018-08-18T05:05:08.701Z,1452
2018-08-18T05:06:18.939Z,1476
2018-08-18T05:07:28.244Z,1496
2018-08-18T05:08:38.130Z,1516
2018-08-18T05:09:47.701Z,1540
2018-08-18T05:10:57.545Z,1560
2018-08-18T05:12:07.120Z,1584
2018-08-18T05:13:16.962Z,1600
2018-08-18T05:14:26.536Z,1624
2018-08-18T05:15:36.382Z,1648
2018-08-18T05:16:45.958Z,1664
2018-08-18T05:17:55.268Z,1692
2018-08-18T05:19:05.539Z,1708
2018-08-18T05:20:15.475Z,1732
2018-08-18T05:21:25.319Z,1756
2018-08-18T05:22:35.158Z,1780
2018-08-18T05:23:44.736Z,1796
2018-08-18T05:24:54.308Z,1812
2018-08-18T05:26:03.926Z,1832
2018-08-18T05:27:13.228Z,1856
2018-08-18T05:28:22.528Z,1876
2018-08-18T05:29:32.101Z,1892
2018-08-18T05:30:41.674Z,1912
2018-08-18T05:31:51.520Z,1932
2018-08-18T05:33:01.099Z,1948
2018-08-18T05:34:11.001Z,1968
2018-08-18T05:35:21.109Z,1988
2018-08-18T05:36:31.089Z,2008
2018-08-18T05:37:41.303Z,2028
2018-08-18T05:38:50.882Z,2044
2018-08-18T05:40:00.448Z,2060
2018-08-18T05:41:10.026Z,2080
2018-08-18T05:42:19.903Z,2096
2018-08-18T05:43:29.762Z,2116
2018-08-18T05:44:39.610Z,2132
2018-08-18T05:45:49.718Z,2148
2018-08-18T05:46:59.294Z,2160
2018-08-18T05:48:08.594Z,2172
2018-08-18T05:49:18.445Z,2188
2018-08-18T05:50:28.016Z,2196
2018-08-18T05:51:37.862Z,2212
2018-08-18T05:52:47.700Z,2220
2018-08-18T05:53:57.811Z,2224
2018-08-18T05:55:07.658Z,2244
2018-08-18T05:56:16.690Z,2252
2018-08-18T05:57:25.997Z,2252
2018-08-18T05:58:35.839Z,2248
2018-08-18T05:59:46.203Z,2256
2018-08-18T06:00:56.513Z,2260
2018-08-18T06:02:06.100Z,2268
2018-08-18T06:03:15.941Z,2276
2018-08-18T06:04:26.060Z,2284
2018-08-18T06:05:35.951Z,2288
2018-08-18T06:06:45.818Z,2292
2018-08-18T06:07:55.934Z,2292
2018-08-18T06:09:05.612Z,2300
2018-08-18T06:10:15.181Z,2316
2018-08-18T06:11:25.020Z,2320
2018-08-18T06:12:34.913Z,2332
2018-08-18T06:13:44.216Z,2352
2018-08-18T06:14:54.076Z,2356
2018-08-18T06:16:03.911Z,2368
2018-08-18T06:17:13.755Z,2376
2018-08-18T06:18:23.599Z,2384
2018-08-18T06:19:32.898Z,2388
2018-08-18T06:20:42.470Z,2400
2018-08-18T06:21:52.038Z,2412
2018-08-18T06:23:01.894Z,2416
2018-08-18T06:24:11.516Z,2428
2018-08-18T06:25:21.630Z,2436
2018-08-18T06:26:31.214Z,2432
2018-08-18T06:27:41.054Z,2436
2018-08-18T06:28:50.919Z,2448
2018-08-18T06:30:00.500Z,2452
2018-08-18T06:31:10.353Z,2464
2018-08-18T06:32:19.920Z,2460
2018-08-18T06:33:29.760Z,2472
2018-08-18T06:34:40.354Z,2472
2018-08-18T06:35:50.332Z,2496
2018-08-18T06:36:59.906Z,2496
2018-08-18T06:38:09.755Z,2500
2018-08-18T06:39:19.876Z,2508
2018-08-18T06:40:29.720Z,2504
2018-08-18T06:41:39.417Z,2496
2018-08-18T06:42:49.484Z,2508
2018-08-18T06:43:59.338Z,2512
2018-08-18T06:45:08.645Z,2528
2018-08-18T06:46:18.497Z,2540
2018-08-18T06:47:28.336Z,2544
2018-08-18T06:48:38.451Z,2544
2018-08-18T06:49:48.302Z,2560
2018-08-18T06:50:58.420Z,2552
2018-08-18T06:52:08.262Z,2552
2018-08-18T06:53:17.605Z,2560
2018-08-18T06:54:27.146Z,2568
2018-08-18T06:55:36.984Z,2564
2018-08-18T06:56:46.286Z,2576
2018-08-18T06:57:55.854Z,2568
2018-08-18T06:59:05.695Z,2568
2018-08-18T07:00:15.001Z,2580
2018-08-18T07:01:24.572Z,2584
2018-08-18T07:02:33.874Z,2584
2018-08-18T07:03:43.991Z,2600
2018-08-18T07:04:53.295Z,2600
2018-08-18T07:06:03.063Z,2604
2018-08-18T07:07:13.227Z,2628
2018-08-18T07:08:23.071Z,2636
2018-08-18T07:09:32.925Z,2648
2018-08-18T07:10:42.495Z,2664
2018-08-18T07:11:52.613Z,2668
2018-08-18T07:13:02.738Z,2684
2018-08-18T07:14:12.309Z,2688
2018-08-18T07:15:22.432Z,2688
2018-08-18T07:16:32.010Z,2708
2018-08-18T07:17:41.589Z,2720
2018-08-18T07:18:51.190Z,2728
2018-08-18T07:20:00.492Z,2748
2018-08-18T07:21:10.076Z,2752
2018-08-18T07:22:19.928Z,2772
2018-08-18T07:23:29.781Z,2808
2018-08-18T07:24:39.895Z,2828
2018-08-18T07:25:49.732Z,2840
2018-08-18T07:26:59.039Z,2864
2018-08-18T07:28:08.458Z,2876
2018-08-18T07:29:18.229Z,2904
2018-08-18T07:30:28.084Z,2928
2018-08-18T07:31:37.941Z,2948
2018-08-18T07:32:48.054Z,2988
2018-08-18T07:33:57.365Z,3012
2018-08-18T07:35:06.408Z,3044
2018-08-18T07:36:16.265Z,3060
2018-08-18T07:37:26.568Z,3068
2018-08-18T07:38:36.275Z,3100
2018-08-18T07:39:45.911Z,3156
2018-08-18T07:40:55.771Z,3200
2018-08-18T07:42:05.356Z,3264
2018-08-18T07:43:15.209Z,3316
2018-08-18T07:44:24.521Z,3372
2018-08-18T07:45:33.838Z,3424
2018-08-18T07:46:43.681Z,3472
2018-08-18T07:47:52.993Z,3532
2018-08-18T07:49:02.934Z,3580
2018-08-18T07:50:12.508Z,3648
2018-08-18T07:51:22.353Z,3732
2018-08-18T07:52:32.195Z,3800
2018-08-18T07:53:41.956Z,3816
2018-08-18T07:54:51.802Z,3888
2018-08-18T07:56:01.666Z,3952
2018-08-18T07:57:10.942Z,3976
2018-08-18T07:58:21.058Z,4008
2018-08-18T07:59:30.913Z,4040
2018-08-18T08:00:40.779Z,4068
2018-08-18T08:01:50.908Z,4048
2018-08-18T08:03:00.496Z,4112
2018-08-18T08:04:10.621Z,4072
2018-08-18T08:05:19.855Z,4020
2018-08-18T08:06:29.429Z,3992
2018-08-18T08:07:38.733Z,3988
2018-08-18T08:08:48.578Z,3952
2018-08-18T08:09:58.424Z,3924
2018-08-18T08:11:07.994Z,3852
2018-08-18T08:12:17.305Z,3844
2018-08-18T08:13:26.674Z,3816
2018-08-18T08:14:36.817Z,3760
2018-08-18T08:15:46.932Z,3716
2018-08-18T08:16:56.512Z,3664
2018-08-18T08:18:06.712Z,3620
2018-08-18T08:19:16.586Z,3592
2018-08-18T08:20:26.165Z,3612
2018-08-18T08:21:36.018Z,3524
2018-08-18T08:22:45.868Z,3440
2018-08-18T08:23:55.441Z,3348
2018-08-18T08:25:05.294Z,3356
2018-08-18T08:26:14.606Z,3260
2018-08-18T08:27:23.914Z,3236
2018-08-18T08:28:33.502Z,3200
2018-08-18T08:29:43.078Z,3212
2018-08-18T08:30:53.193Z,3204
2018-08-18T08:32:03.378Z,3188
2018-08-18T08:33:12.923Z,3220
2018-08-18T08:34:22.611Z,3264
2018-08-18T08:35:32.200Z,3260
2018-08-18T08:36:41.858Z,3304
2018-08-18T08:37:51.825Z,3332
2018-08-18T08:39:01.413Z,3348
2018-08-18T08:40:11.531Z,3392
2018-08-18T08:41:21.378Z,3512
2018-08-18T08:42:31.483Z,3588
2018-08-18T08:43:41.331Z,3664
2018-08-18T08:44:51.177Z,3700
2018-08-18T08:46:01.015Z,3740
2018-08-18T08:47:11.131Z,3768
2018-08-18T08:48:20.982Z,3816
2018-08-18T08:49:30.557Z,3852
2018-08-18T08:50:39.643Z,3856
2018-08-18T08:51:49.219Z,3884
2018-08-18T08:52:59.073Z,3952
2018-08-18T08:54:08.647Z,3976
2018-08-18T08:55:18.222Z,4024
2018-08-18T08:56:28.124Z,4008
2018-08-18T08:57:37.965Z,3996
2018-08-18T08:58:47.633Z,3920
2018-08-18T08:59:57.837Z,3836
2018-08-18T09:01:07.690Z,3764
2018-08-18T09:02:17.266Z,3708
2018-08-18T09:03:26.840Z,3624
2018-08-18T09:04:36.413Z,3596
2018-08-18T09:05:45.995Z,3588
2018-08-18T09:06:55.581Z,3680
2018-08-18T09:08:05.483Z,3756
2018-08-18T09:09:15.059Z,3544
2018-08-18T09:10:25.275Z,3392
2018-08-18T09:11:34.932Z,3376
2018-08-18T09:12:45.049Z,3324
2018-08-18T09:13:54.889Z,3440
2018-08-18T09:15:03.924Z,3352
2018-08-18T09:16:13.767Z,3408
2018-08-18T09:17:23.064Z,3496
2018-08-18T09:18:33.179Z,3528
2018-08-18T09:19:42.761Z,3508
2018-08-18T09:20:52.877Z,3484
2018-08-18T09:22:02.451Z,3468
2018-08-18T09:23:11.754Z,3424
2018-08-18T09:24:21.602Z,3360
2018-08-18T09:25:31.728Z,3336
2018-08-18T09:26:42.002Z,3308
2018-08-18T09:27:51.857Z,3308
2018-08-18T09:29:01.438Z,3332
2018-08-18T09:30:10.755Z,3340
2018-08-18T09:31:19.795Z,3316
2018-08-18T09:32:29.644Z,3300
2018-08-18T09:33:39.491Z,3308
2018-08-18T09:34:48.796Z,3340
2018-08-18T09:35:58.375Z,3388
2018-08-18T09:37:08.230Z,3404
2018-08-18T09:38:17.809Z,3408
2018-08-18T09:39:27.122Z,3420
2018-08-18T09:40:37.243Z,3412
2018-08-18T09:41:47.084Z,3428
2018-08-18T09:42:56.924Z,3456
2018-08-18T09:44:06.239Z,3456
2018-08-18T09:45:16.361Z,3452
2018-08-18T09:46:27.082Z,3456
2018-08-18T09:47:36.959Z,3504
2018-08-18T09:48:46.817Z,3528
2018-08-18T09:49:56.667Z,3552
2018-08-18T09:51:06.245Z,3576
2018-08-18T09:52:16.366Z,3608
2018-08-18T09:53:26.215Z,3644
2018-08-18T09:54:35.798Z,3680
2018-08-18T09:55:44.834Z,3692
2018-08-18T09:56:54.960Z,3712
2018-08-18T09:58:04.267Z,3720
2018-08-18T09:59:14.277Z,3752
2018-08-18T10:00:23.906Z,3788
2018-08-18T10:01:34.021Z,3832
2018-08-18T10:02:43.325Z,3920
2018-08-18T10:03:52.632Z,4000
2018-08-18T10:05:01.937Z,4088
2018-08-18T10:06:11.514Z,4148
2018-08-18T10:07:21.707Z,4204
2018-08-18T10:08:30.744Z,4204
2018-08-18T10:09:40.049Z,4200
2018-08-18T10:10:49.632Z,4240
2018-08-18T10:11:59.476Z,4268
2018-08-18T10:13:08.784Z,4248
2018-08-18T10:14:18.363Z,4292
2018-08-18T10:15:28.370Z,4348
2018-08-18T10:16:36.980Z,4372
2018-08-18T10:17:47.095Z,4416
2018-08-18T10:18:57.243Z,4504
2018-08-18T10:20:06.550Z,4596
2018-08-18T10:21:16.123Z,4736
2018-08-18T10:22:25.431Z,4768
2018-08-18T10:23:35.007Z,4868
2018-08-18T10:24:44.578Z,4892
2018-08-18T10:25:54.168Z,4920
2018-08-18T10:27:04.010Z,4928
2018-08-18T10:28:13.592Z,4952
2018-08-18T10:29:23.166Z,5028
2018-08-18T10:30:32.744Z,5132
2018-08-18T10:31:42.375Z,5248
2018-08-18T10:32:51.951Z,5360
2018-08-18T10:34:01.257Z,5488
2018-08-18T10:35:10.834Z,5608
2018-08-18T10:36:20.679Z,5784
2018-08-18T10:37:29.991Z,5908
2018-08-18T10:38:39.578Z,6004
2018-08-18T10:39:49.424Z,6188
2018-08-18T10:40:59.284Z,6344
2018-08-18T10:42:09.427Z,6504
2018-08-18T10:43:19.585Z,6672
2018-08-18T10:44:29.429Z,6804
2018-08-18T10:45:39.282Z,6996
2018-08-18T10:46:49.134Z,7164
2018-08-18T10:47:58.449Z,7276
2018-08-18T10:49:08.041Z,7324
2018-08-18T10:50:18.155Z,7372
2018-08-18T10:51:27.739Z,7428
2018-08-18T10:52:37.071Z,7396
2018-08-18T10:53:46.642Z,7404
2018-08-18T10:54:55.682Z,7284
2018-08-18T10:56:05.262Z,7084
2018-08-18T10:57:14.573Z,6736
2018-08-18T10:58:24.171Z,6256
2018-08-18T10:59:33.547Z,6008
2018-08-18T11:00:42.585Z,5796
2018-08-18T11:01:52.163Z,5720
2018-08-18T11:03:01.469Z,5676
2018-08-18T11:04:11.076Z,5644
2018-08-18T11:05:21.252Z,5748
2018-08-18T11:06:31.100Z,5784
2018-08-18T11:07:40.947Z,5848
2018-08-18T11:08:50.798Z,6088
2018-08-18T11:10:00.642Z,6116
2018-08-18T11:11:10.493Z,6168
2018-08-18T11:12:20.607Z,6272
2018-08-18T11:13:29.643Z,6364
2018-08-18T11:14:39.222Z,6336
2018-08-18T11:15:48.526Z,6344
2018-08-18T11:16:58.369Z,6364
2018-08-18T11:18:07.698Z,6308
2018-08-18T11:19:17.287Z,6296
2018-08-18T11:20:27.132Z,6232
2018-08-18T11:21:36.978Z,6164
2018-08-18T11:22:46.282Z,6116
2018-08-18T11:23:55.859Z,6008
2018-08-18T11:25:05.437Z,5860
2018-08-18T11:26:15.018Z,5836
2018-08-18T11:27:24.860Z,5752
2018-08-18T11:28:34.451Z,5796
2018-08-18T11:29:44.787Z,5904
2018-08-18T11:30:54.909Z,5892
2018-08-18T11:32:04.755Z,5812
2018-08-18T11:33:14.604Z,5840
2018-08-18T11:34:24.179Z,5992
2018-08-18T11:35:33.767Z,6396
2018-08-18T11:36:42.811Z,6644
2018-08-18T11:37:51.849Z,6460
2018-08-18T11:39:01.155Z,6340
2018-08-18T11:40:10.244Z,6452
2018-08-18T11:41:19.823Z,6412
2018-08-18T11:42:29.401Z,6524
2018-08-18T11:43:39.520Z,6476
2018-08-18T11:44:48.832Z,6324
2018-08-18T11:45:58.951Z,6444
2018-08-18T11:47:09.211Z,6684
2018-08-18T11:48:19.142Z,7068
2018-08-18T11:49:28.451Z,7360
2018-08-18T11:50:37.771Z,7808
2018-08-18T11:51:47.679Z,8728
2018-08-18T11:52:57.534Z,10636
2018-08-18T11:54:07.446Z,9900
2018-08-18T11:55:17.034Z,8472
2018-08-18T11:56:26.620Z,8512
2018-08-18T11:57:36.464Z,9192
2018-08-18T11:58:46.053Z,10660
2018-08-18T11:59:55.909Z,13292
2018-08-18T12:01:05.654Z,17760
2018-08-18T12:02:15.623Z,11032
2018-08-18T12:03:24.983Z,49152
2018-08-18T12:04:34.832Z,56256
2018-08-18T12:05:43.865Z,57920
2018-08-18T12:06:53.748Z,58144
2018-08-18T12:08:03.336Z,56928
2018-08-18T12:09:13.507Z,62208
2018-08-18T12:10:23.092Z,61408
2018-08-18T12:11:32.764Z,62240
2018-08-18T12:12:42.362Z,14816
2018-08-18T12:13:51.689Z,27680
2018-08-18T12:15:01.007Z,18164
2018-08-18T12:16:10.855Z,28960
2018-08-18T12:17:20.706Z,40128
2018-08-18T12:18:30.834Z,31200
2018-08-18T12:19:39.605Z,27456
2018-08-18T12:20:49.185Z,15620
2018-08-18T12:21:59.032Z,49216
2018-08-18T12:23:08.614Z,62400
2018-08-18T12:24:18.206Z,64736
2018-08-18T12:25:28.113Z,66176
2018-08-18T12:26:37.986Z,67200
2018-08-18T12:27:47.297Z,62880
2018-08-18T12:28:57.155Z,65440
2018-08-18T12:30:06.960Z,66080
2018-08-18T12:31:16.590Z,56064
2018-08-18T12:32:26.723Z,36960
2018-08-18T12:33:36.586Z,42240
2018-08-18T12:34:46.176Z,26336
2018-08-18T12:35:56.030Z,30656
2018-08-18T12:37:05.386Z,31584
2018-08-18T12:38:14.924Z,45184
2018-08-18T12:39:24.513Z,34784
2018-08-18T12:40:34.369Z,35328
2018-08-18T12:41:44.224Z,24544
2018-08-18T12:42:54.079Z,14396
2018-08-18T12:44:03.934Z,20288
2018-08-18T12:45:13.247Z,26848
2018-08-18T12:46:23.114Z,48704
2018-08-18T12:47:32.972Z,62560
2018-08-18T12:48:43.094Z,65632
2018-08-18T12:49:53.313Z,67104
2018-08-18T12:51:03.303Z,66464
2018-08-18T12:52:12.893Z,66720
2018-08-18T12:53:22.760Z,68576
2018-08-18T12:54:32.339Z,63296
2018-08-18T12:55:42.199Z,43200
2018-08-18T12:56:52.050Z,21728
2018-08-18T12:58:01.900Z,16672
2018-08-18T12:59:11.766Z,50112
2018-08-18T13:00:21.618Z,12572
2018-08-18T13:01:31.197Z,8176
2018-08-18T13:02:40.520Z,14524
2018-08-18T13:03:50.099Z,18496
2018-08-18T13:05:00.224Z,23328
2018-08-18T13:06:09.807Z,19776
2018-08-18T13:07:19.930Z,21792
2018-08-18T13:08:29.508Z,16704
2018-08-18T13:09:39.359Z,40512
2018-08-18T13:10:48.941Z,43552
2018-08-18T13:11:58.534Z,33440
2018-08-18T13:13:08.116Z,15516
2018-08-18T13:14:18.043Z,14936
2018-08-18T13:15:27.738Z,22880
2018-08-18T13:16:37.322Z,22240
2018-08-18T13:17:47.178Z,20768
2018-08-18T13:18:57.296Z,15680
2018-08-18T13:20:06.880Z,13712
2018-08-18T13:21:16.190Z,13740
2018-08-18T13:22:25.500Z,14060
2018-08-18T13:23:35.355Z,16948
2018-08-18T13:24:44.945Z,22016
2018-08-18T13:25:54.528Z,34080
2018-08-18T13:27:04.112Z,28992
2018-08-18T13:28:13.431Z,31744
2018-08-18T13:29:23.285Z,37472
2018-08-18T13:30:33.139Z,44992
2018-08-18T13:31:42.991Z,34048
2018-08-18T13:32:52.633Z,35520
2018-08-18T13:34:02.759Z,30560
2018-08-18T13:35:11.804Z,22880
2018-08-18T13:36:20.849Z,24032
2018-08-18T13:37:30.167Z,19168
2018-08-18T13:38:40.068Z,24064
2018-08-18T13:39:50.203Z,20288
2018-08-18T13:41:00.329Z,16644
2018-08-18T13:42:10.183Z,16892
2018-08-18T13:43:19.769Z,17664
2018-08-18T13:44:29.358Z,27744
2018-08-18T13:45:38.937Z,38560
2018-08-18T13:46:49.154Z,52640
2018-08-18T13:47:59.492Z,46528
2018-08-18T13:49:09.348Z,56416
2018-08-18T13:50:18.932Z,62176
2018-08-18T13:51:28.521Z,63968
2018-08-18T13:52:38.243Z,67872
2018-08-18T13:53:48.285Z,73984
2018-08-18T13:54:58.421Z,75616
2018-08-18T13:56:08.283Z,77344
2018-08-18T13:57:18.134Z,79328
2018-08-18T13:58:27.715Z,76768
2018-08-18T13:59:37.303Z,66688
2018-08-18T14:00:47.157Z,39424
2018-08-18T14:01:56.744Z,33664
2018-08-18T14:03:06.596Z,51456
2018-08-18T14:04:16.464Z,51744
2018-08-18T14:05:26.621Z,59200
2018-08-18T14:06:36.217Z,63808
2018-08-18T14:07:45.535Z,52768
2018-08-18T14:08:55.400Z,54624
2018-08-18T14:10:04.986Z,53216
2018-08-18T14:11:15.096Z,55968
2018-08-18T14:12:24.413Z,51936
2018-08-18T14:13:34.264Z,25120
2018-08-18T14:14:43.844Z,55008
2018-08-18T14:15:53.435Z,59680
2018-08-18T14:17:03.291Z,59616
2018-08-18T14:18:12.335Z,58272
2018-08-18T14:19:21.971Z,51648
2018-08-18T14:20:31.562Z,48608
2018-08-18T14:21:40.878Z,51872
2018-08-18T14:22:50.456Z,53344
2018-08-18T14:24:00.588Z,45824
2018-08-18T14:25:09.901Z,49120
2018-08-18T14:26:20.029Z,47360
2018-08-18T14:27:29.344Z,45824
2018-08-18T14:28:39.425Z,37536
2018-08-18T14:29:48.748Z,50208
2018-08-18T14:30:58.330Z,53600
2018-08-18T14:32:08.456Z,50496
2018-08-18T14:33:17.774Z,49824
2018-08-18T14:34:27.450Z,52896
2018-08-18T14:35:36.863Z,55104
2018-08-18T14:36:46.986Z,58368
2018-08-18T14:37:57.104Z,55040
2018-08-18T14:39:06.692Z,56192
2018-08-18T14:40:16.553Z,59520
2018-08-18T14:41:25.866Z,57760
2018-08-18T14:42:35.726Z,58240
2018-08-18T14:43:45.318Z,59680
2018-08-18T14:44:55.841Z,60576
2018-08-18T14:46:05.698Z,59680
2018-08-18T14:47:15.557Z,60896
2018-08-18T14:48:25.695Z,58016
2018-08-18T14:49:35.291Z,61920
2018-08-18T14:50:45.149Z,67520
2018-08-18T14:51:54.747Z,69824
2018-08-18T14:53:04.616Z,72224
2018-08-18T14:54:14.848Z,62208
2018-08-18T14:55:24.985Z,68384
2018-08-18T14:56:34.578Z,76928
2018-08-18T14:57:44.427Z,73664
2018-08-18T14:58:54.630Z,69920
2018-08-18T15:00:04.490Z,68928
2018-08-18T15:01:14.618Z,70080
2018-08-18T15:02:24.204Z,75008
2018-08-18T15:03:34.348Z,76448
2018-08-18T15:04:43.932Z,73312
2018-08-18T15:05:53.250Z,70144
2018-08-18T15:07:03.113Z,67072
2018-08-18T15:08:12.971Z,69024
2018-08-18T15:09:22.830Z,68384
2018-08-18T15:10:32.147Z,69600
2018-08-18T15:11:41.739Z,71968
2018-08-18T15:12:51.875Z,69568
2018-08-18T15:14:02.064Z,71104
2018-08-18T15:15:11.386Z,67328
2018-08-18T15:16:21.299Z,65440
2018-08-18T15:17:30.886Z,63584
2018-08-18T15:18:40.750Z,60448
2018-08-18T15:19:50.640Z,53792
2018-08-18T15:21:00.338Z,54144
2018-08-18T15:22:10.010Z,57888
2018-08-18T15:23:19.606Z,52768
2018-08-18T15:24:29.193Z,56448
2018-08-18T15:25:39.086Z,54528
2018-08-18T15:26:49.225Z,55488
2018-08-18T15:27:59.082Z,51232
2018-08-18T15:29:08.124Z,39104
2018-08-18T15:30:17.977Z,39584
2018-08-18T15:31:28.105Z,39136
2018-08-18T15:32:37.964Z,37984
2018-08-18T15:33:47.552Z,37248
2018-08-18T15:34:57.466Z,34144
2018-08-18T15:36:07.055Z,32928
2018-08-18T15:37:16.921Z,33120
2018-08-18T15:38:26.514Z,30976
2018-08-18T15:39:36.398Z,28256
2018-08-18T15:40:46.267Z,33792
2018-08-18T15:41:55.592Z,31872
2018-08-18T15:43:04.905Z,36000
2018-08-18T15:44:14.754Z,33472
2018-08-18T15:45:24.071Z,31264